Search for airport 
image banner adimage banner adimage banner ad
image banner ad

5G8 - Greensburg Jeannette Rgnl

Located in Jeannette, United States

ICAO - 5G8, IATA -

Data provided by Airmate  

General information

Coordinates: N40°22'35" W79°36'32"
Elevation is 1188 feet MSL.
Magnetic variation is -08° East
View others Airports in Pennsylvania

Operational data

Special qualification required
Current time UTC:
Current local time:
Weather at : KLBE - Arnold Palmer Rgnl ( 20 km )
METAR: KLBE 182245Z VRB04KT 15SM CLR 25/05 A3028
TAF: KLBE 181726Z 1818/1918 32003KT P6SM SCT050 FM182300 00000KT P6SM SKC FM191500 14004KT P6SM SCT040
View NOTAMs / SUP AIP / TFR affecting this airport [VIEW]
Communications frequencies: [VIEW]

Runways:

RWY identifierQFULength (ft)Width (ft)SurfaceLDA (ft)
02260550ASPH
20188°260550ASPH

Airport contact information

Address: Jeannette United States

Satellite view of 5G8